sensor_id;sensor_type;location;lat;lon;timestamp;P1;durP1;ratioP1;P2;durP2;ratioP2
70981;SDS011;58640;51.320;9.456;2022-09-21T00:00:09;4.75;;;1.77;;
70981;SDS011;58640;51.320;9.456;2022-09-21T00:02:34;1.80;;;1.40;;
70981;SDS011;58640;51.320;9.456;2022-09-21T00:05:00;3.35;;;1.90;;
70981;SDS011;58640;51.320;9.456;2022-09-21T00:07:25;2.97;;;1.70;;
70981;SDS011;58640;51.320;9.456;2022-09-21T00:09:50;3.13;;;1.50;;
70981;SDS011;58640;51.320;9.456;2022-09-21T00:12:16;8.35;;;1.20;;
70981;SDS011;58640;51.320;9.456;2022-09-21T00:14:41;2.45;;;1.58;;
70981;SDS011;58640;51.320;9.456;2022-09-21T00:17:07;4.43;;;1.80;;
70981;SDS011;58640;51.320;9.456;2022-09-21T00:19:33;5.07;;;2.10;;
70981;SDS011;58640;51.320;9.456;2022-09-21T00:21:59;7.63;;;2.72;;
70981;SDS011;58640;51.320;9.456;2022-09-21T00:24:25;5.85;;;2.50;;
70981;SDS011;58640;51.320;9.456;2022-09-21T00:26:50;4.32;;;2.45;;
70981;SDS011;58640;51.320;9.456;2022-09-21T00:29:15;3.95;;;2.05;;
70981;SDS011;58640;51.320;9.456;2022-09-21T00:31:41;7.72;;;2.13;;
70981;SDS011;58640;51.320;9.456;2022-09-21T00:34:06;12.70;;;2.70;;
70981;SDS011;58640;51.320;9.456;2022-09-21T00:36:32;5.80;;;2.20;;
70981;SDS011;58640;51.320;9.456;2022-09-21T00:38:58;6.20;;;2.50;;
70981;SDS011;58640;51.320;9.456;2022-09-21T00:41:26;8.65;;;2.90;;
70981;SDS011;58640;51.320;9.456;2022-09-21T00:46:42;8.63;;;3.22;;
70981;SDS011;58640;51.320;9.456;2022-09-21T00:49:10;8.30;;;2.70;;
70981;SDS011;58640;51.320;9.456;2022-09-21T00:51:36;6.40;;;2.72;;
70981;SDS011;58640;51.320;9.456;2022-09-21T00:54:06;3.28;;;2.25;;
70981;SDS011;58640;51.320;9.456;2022-09-21T00:56:36;6.90;;;2.92;;
70981;SDS011;58640;51.320;9.456;2022-09-21T00:59:03;7.45;;;2.95;;
70981;SDS011;58640;51.320;9.456;2022-09-21T01:01:29;4.60;;;2.40;;
70981;SDS011;58640;51.320;9.456;2022-09-21T01:03:55;4.00;;;2.53;;
70981;SDS011;58640;51.320;9.456;2022-09-21T01:06:21;2.90;;;1.77;;
70981;SDS011;58640;51.320;9.456;2022-09-21T01:08:49;8.57;;;2.60;;
70981;SDS011;58640;51.320;9.456;2022-09-21T01:11:28;6.22;;;2.50;;
70981;SDS011;58640;51.320;9.456;2022-09-21T01:14:11;4.38;;;2.10;;
70981;SDS011;58640;51.320;9.456;2022-09-21T01:16:42;5.28;;;2.17;;
70981;SDS011;58640;51.320;9.456;2022-09-21T01:19:37;6.25;;;2.33;;
70981;SDS011;58640;51.320;9.456;2022-09-21T01:30:31;17.02;;;5.47;;
70981;SDS011;58640;51.320;9.456;2022-09-21T01:33:04;6.22;;;3.75;;
70981;SDS011;58640;51.320;9.456;2022-09-21T01:35:36;11.40;;;4.45;;
70981;SDS011;58640;51.320;9.456;2022-09-21T01:38:11;8.48;;;3.92;;
70981;SDS011;58640;51.320;9.456;2022-09-21T01:40:42;9.73;;;4.40;;
70981;SDS011;58640;51.320;9.456;2022-09-21T01:43:13;11.15;;;5.00;;
70981;SDS011;58640;51.320;9.456;2022-09-21T01:45:49;24.50;;;5.63;;
70981;SDS011;58640;51.320;9.456;2022-09-21T01:48:18;14.07;;;6.05;;
70981;SDS011;58640;51.320;9.456;2022-09-21T01:50:48;14.68;;;6.05;;
70981;SDS011;58640;51.320;9.456;2022-09-21T01:53:18;10.50;;;5.22;;
70981;SDS011;58640;51.320;9.456;2022-09-21T01:55:52;21.20;;;5.75;;
70981;SDS011;58640;51.320;9.456;2022-09-21T01:58:35;8.52;;;4.28;;
70981;SDS011;58640;51.320;9.456;2022-09-21T02:01:09;38.90;;;4.47;;
70981;SDS011;58640;51.320;9.456;2022-09-21T02:06:17;7.35;;;3.53;;
70981;SDS011;58640;51.320;9.456;2022-09-21T02:08:43;9.05;;;3.05;;
70981;SDS011;58640;51.320;9.456;2022-09-21T02:11:10;8.15;;;4.45;;
70981;SDS011;58640;51.320;9.456;2022-09-21T02:13:38;9.00;;;3.88;;
70981;SDS011;58640;51.320;9.456;2022-09-21T02:26:53;5.53;;;3.65;;
70981;SDS011;58640;51.320;9.456;2022-09-21T02:32:38;10.82;;;4.32;;
70981;SDS011;58640;51.320;9.456;2022-09-21T02:35:17;14.98;;;4.18;;
70981;SDS011;58640;51.320;9.456;2022-09-21T02:37:53;25.38;;;5.15;;
70981;SDS011;58640;51.320;9.456;2022-09-21T02:40:27;13.70;;;4.55;;
70981;SDS011;58640;51.320;9.456;2022-09-21T02:43:01;13.23;;;4.35;;
70981;SDS011;58640;51.320;9.456;2022-09-21T02:45:33;15.07;;;5.03;;
70981;SDS011;58640;51.320;9.456;2022-09-21T02:48:10;14.57;;;5.10;;
70981;SDS011;58640;51.320;9.456;2022-09-21T02:53:32;9.63;;;4.65;;
70981;SDS011;58640;51.320;9.456;2022-09-21T02:56:01;15.15;;;5.18;;
70981;SDS011;58640;51.320;9.456;2022-09-21T02:58:31;7.85;;;4.63;;
70981;SDS011;58640;51.320;9.456;2022-09-21T03:01:00;42.58;;;5.80;;
70981;SDS011;58640;51.320;9.456;2022-09-21T03:03:26;31.80;;;5.28;;
70981;SDS011;58640;51.320;9.456;2022-09-21T03:05:52;22.75;;;6.05;;
70981;SDS011;58640;51.320;9.456;2022-09-21T03:08:19;11.05;;;4.32;;
70981;SDS011;58640;51.320;9.456;2022-09-21T03:10:45;23.75;;;5.47;;
70981;SDS011;58640;51.320;9.456;2022-09-21T03:13:13;84.90;;;8.10;;
70981;SDS011;58640;51.320;9.456;2022-09-21T03:15:39;25.45;;;4.60;;
70981;SDS011;58640;51.320;9.456;2022-09-21T03:18:06;26.95;;;5.10;;
70981;SDS011;58640;51.320;9.456;2022-09-21T03:20:36;23.35;;;5.05;;
70981;SDS011;58640;51.320;9.456;2022-09-21T03:23:02;11.73;;;5.18;;
70981;SDS011;58640;51.320;9.456;2022-09-21T03:25:28;13.85;;;4.40;;
70981;SDS011;58640;51.320;9.456;2022-09-21T03:27:55;21.30;;;5.38;;
70981;SDS011;58640;51.320;9.456;2022-09-21T03:30:22;33.05;;;4.97;;
70981;SDS011;58640;51.320;9.456;2022-09-21T03:32:49;20.13;;;4.07;;
70981;SDS011;58640;51.320;9.456;2022-09-21T03:35:15;29.33;;;4.72;;
70981;SDS011;58640;51.320;9.456;2022-09-21T03:37:41;19.92;;;3.47;;
70981;SDS011;58640;51.320;9.456;2022-09-21T03:40:07;16.60;;;3.80;;
70981;SDS011;58640;51.320;9.456;2022-09-21T03:42:33;15.48;;;3.97;;
70981;SDS011;58640;51.320;9.456;2022-09-21T03:44:58;11.07;;;3.88;;
70981;SDS011;58640;51.320;9.456;2022-09-21T03:47:24;26.98;;;4.82;;
70981;SDS011;58640;51.320;9.456;2022-09-21T03:49:49;32.08;;;4.25;;
70981;SDS011;58640;51.320;9.456;2022-09-21T03:52:14;46.65;;;4.38;;
70981;SDS011;58640;51.320;9.456;2022-09-21T03:54:40;21.15;;;4.20;;
70981;SDS011;58640;51.320;9.456;2022-09-21T03:57:05;7.93;;;3.28;;
70981;SDS011;58640;51.320;9.456;2022-09-21T03:59:30;23.38;;;4.28;;
70981;SDS011;58640;51.320;9.456;2022-09-21T04:01:56;6.63;;;4.18;;
70981;SDS011;58640;51.320;9.456;2022-09-21T04:04:21;60.15;;;9.60;;
70981;SDS011;58640;51.320;9.456;2022-09-21T04:06:46;29.13;;;4.50;;
70981;SDS011;58640;51.320;9.456;2022-09-21T04:09:12;9.27;;;3.83;;
70981;SDS011;58640;51.320;9.456;2022-09-21T04:11:37;20.85;;;5.82;;
70981;SDS011;58640;51.320;9.456;2022-09-21T04:14:02;44.42;;;5.15;;
70981;SDS011;58640;51.320;9.456;2022-09-21T04:16:29;58.85;;;5.35;;
70981;SDS011;58640;51.320;9.456;2022-09-21T04:18:55;41.03;;;7.38;;
70981;SDS011;58640;51.320;9.456;2022-09-21T04:21:20;16.05;;;4.10;;
70981;SDS011;58640;51.320;9.456;2022-09-21T04:23:46;26.60;;;4.78;;
70981;SDS011;58640;51.320;9.456;2022-09-21T04:26:28;7.22;;;4.65;;
70981;SDS011;58640;51.320;9.456;2022-09-21T04:28:58;26.20;;;6.47;;
70981;SDS011;58640;51.320;9.456;2022-09-21T04:31:24;11.23;;;4.07;;
70981;SDS011;58640;51.320;9.456;2022-09-21T04:33:51;12.77;;;4.07;;
70981;SDS011;58640;51.320;9.456;2022-09-21T04:36:17;51.17;;;5.28;;
70981;SDS011;58640;51.320;9.456;2022-09-21T04:38:43;12.25;;;4.50;;
70981;SDS011;58640;51.320;9.456;2022-09-21T04:41:09;6.35;;;4.32;;
70981;SDS011;58640;51.320;9.456;2022-09-21T04:43:34;20.17;;;4.72;;
70981;SDS011;58640;51.320;9.456;2022-09-21T04:46:07;12.05;;;4.45;;
70981;SDS011;58640;51.320;9.456;2022-09-21T04:48:33;9.68;;;4.10;;
70981;SDS011;58640;51.320;9.456;2022-09-21T04:50:59;13.30;;;4.70;;
70981;SDS011;58640;51.320;9.456;2022-09-21T04:53:24;60.33;;;7.55;;
70981;SDS011;58640;51.320;9.456;2022-09-21T04:55:50;59.58;;;5.30;;
70981;SDS011;58640;51.320;9.456;2022-09-21T04:58:15;49.88;;;5.90;;
70981;SDS011;58640;51.320;9.456;2022-09-21T05:00:40;19.92;;;6.63;;
70981;SDS011;58640;51.320;9.456;2022-09-21T05:03:06;8.02;;;4.25;;
70981;SDS011;58640;51.320;9.456;2022-09-21T05:05:31;9.57;;;4.82;;
70981;SDS011;58640;51.320;9.456;2022-09-21T05:07:57;12.40;;;4.63;;
70981;SDS011;58640;51.320;9.456;2022-09-21T05:10:22;14.60;;;4.22;;
70981;SDS011;58640;51.320;9.456;2022-09-21T05:12:47;7.35;;;4.53;;
70981;SDS011;58640;51.320;9.456;2022-09-21T05:15:13;38.05;;;6.22;;
70981;SDS011;58640;51.320;9.456;2022-09-21T05:17:39;7.35;;;4.55;;
70981;SDS011;58640;51.320;9.456;2022-09-21T05:20:05;18.17;;;4.88;;
70981;SDS011;58640;51.320;9.456;2022-09-21T05:22:31;15.80;;;4.90;;
70981;SDS011;58640;51.320;9.456;2022-09-21T05:24:56;13.70;;;4.75;;
70981;SDS011;58640;51.320;9.456;2022-09-21T05:27:21;12.38;;;4.63;;
70981;SDS011;58640;51.320;9.456;2022-09-21T05:29:47;21.60;;;4.97;;
70981;SDS011;58640;51.320;9.456;2022-09-21T05:32:26;18.30;;;5.50;;
70981;SDS011;58640;51.320;9.456;2022-09-21T05:35:23;10.68;;;4.70;;
70981;SDS011;58640;51.320;9.456;2022-09-21T05:38:00;6.90;;;4.72;;
70981;SDS011;58640;51.320;9.456;2022-09-21T05:40:29;13.32;;;5.00;;
70981;SDS011;58640;51.320;9.456;2022-09-21T05:42:55;15.60;;;5.43;;
70981;SDS011;58640;51.320;9.456;2022-09-21T05:45:21;7.13;;;5.13;;
70981;SDS011;58640;51.320;9.456;2022-09-21T05:47:49;12.52;;;5.80;;
70981;SDS011;58640;51.320;9.456;2022-09-21T05:50:42;6.70;;;4.55;;
70981;SDS011;58640;51.320;9.456;2022-09-21T05:55:55;16.98;;;5.35;;
70981;SDS011;58640;51.320;9.456;2022-09-21T06:01:30;6.57;;;5.30;;
70981;SDS011;58640;51.320;9.456;2022-09-21T06:04:20;17.58;;;6.32;;
70981;SDS011;58640;51.320;9.456;2022-09-21T06:06:46;9.95;;;5.97;;
70981;SDS011;58640;51.320;9.456;2022-09-21T06:09:11;17.35;;;7.38;;
70981;SDS011;58640;51.320;9.456;2022-09-21T06:11:36;9.63;;;6.65;;
70981;SDS011;58640;51.320;9.456;2022-09-21T06:14:02;14.48;;;6.15;;
70981;SDS011;58640;51.320;9.456;2022-09-21T06:16:35;12.07;;;6.05;;
70981;SDS011;58640;51.320;9.456;2022-09-21T06:19:04;26.35;;;5.97;;
70981;SDS011;58640;51.320;9.456;2022-09-21T06:21:30;10.57;;;5.90;;
70981;SDS011;58640;51.320;9.456;2022-09-21T06:23:55;11.40;;;6.38;;
70981;SDS011;58640;51.320;9.456;2022-09-21T06:26:21;19.13;;;7.05;;
70981;SDS011;58640;51.320;9.456;2022-09-21T06:28:46;13.40;;;6.50;;
70981;SDS011;58640;51.320;9.456;2022-09-21T06:31:11;19.90;;;6.85;;
70981;SDS011;58640;51.320;9.456;2022-09-21T06:33:37;29.30;;;6.93;;
70981;SDS011;58640;51.320;9.456;2022-09-21T06:36:02;17.70;;;6.35;;
70981;SDS011;58640;51.320;9.456;2022-09-21T06:38:28;9.43;;;6.20;;
70981;SDS011;58640;51.320;9.456;2022-09-21T06:40:53;11.20;;;5.68;;
70981;SDS011;58640;51.320;9.456;2022-09-21T06:43:20;10.98;;;5.80;;
70981;SDS011;58640;51.320;9.456;2022-09-21T06:45:52;11.95;;;6.03;;
70981;SDS011;58640;51.320;9.456;2022-09-21T06:48:19;11.65;;;5.85;;
70981;SDS011;58640;51.320;9.456;2022-09-21T06:50:45;10.73;;;6.22;;
70981;SDS011;58640;51.320;9.456;2022-09-21T06:59:54;7.78;;;5.22;;
70981;SDS011;58640;51.320;9.456;2022-09-21T07:02:20;11.55;;;4.93;;
70981;SDS011;58640;51.320;9.456;2022-09-21T07:04:45;11.00;;;5.20;;
70981;SDS011;58640;51.320;9.456;2022-09-21T07:07:11;9.70;;;6.00;;
70981;SDS011;58640;51.320;9.456;2022-09-21T07:09:36;10.60;;;6.15;;
70981;SDS011;58640;51.320;9.456;2022-09-21T07:14:32;9.02;;;4.95;;
70981;SDS011;58640;51.320;9.456;2022-09-21T07:16:58;12.90;;;8.10;;
70981;SDS011;58640;51.320;9.456;2022-09-21T07:19:23;79.15;;;8.98;;
70981;SDS011;58640;51.320;9.456;2022-09-21T07:21:49;12.25;;;6.90;;
70981;SDS011;58640;51.320;9.456;2022-09-21T07:24:17;9.77;;;7.50;;
70981;SDS011;58640;51.320;9.456;2022-09-21T07:26:42;9.90;;;7.38;;
70981;SDS011;58640;51.320;9.456;2022-09-21T07:29:07;12.43;;;7.57;;
70981;SDS011;58640;51.320;9.456;2022-09-21T07:31:33;8.90;;;6.65;;
70981;SDS011;58640;51.320;9.456;2022-09-21T07:33:59;9.82;;;7.03;;
70981;SDS011;58640;51.320;9.456;2022-09-21T07:36:24;10.68;;;6.63;;
70981;SDS011;58640;51.320;9.456;2022-09-21T07:38:49;13.38;;;7.53;;
70981;SDS011;58640;51.320;9.456;2022-09-21T07:41:15;12.40;;;7.53;;
70981;SDS011;58640;51.320;9.456;2022-09-21T07:43:40;14.20;;;7.47;;
70981;SDS011;58640;51.320;9.456;2022-09-21T07:46:07;10.23;;;6.72;;
70981;SDS011;58640;51.320;9.456;2022-09-21T07:48:34;14.30;;;7.85;;
70981;SDS011;58640;51.320;9.456;2022-09-21T07:51:09;13.65;;;7.30;;
70981;SDS011;58640;51.320;9.456;2022-09-21T07:53:36;15.82;;;8.65;;
70981;SDS011;58640;51.320;9.456;2022-09-21T07:56:03;12.75;;;8.02;;
70981;SDS011;58640;51.320;9.456;2022-09-21T07:58:31;11.00;;;6.95;;
70981;SDS011;58640;51.320;9.456;2022-09-21T08:01:15;12.45;;;7.88;;
70981;SDS011;58640;51.320;9.456;2022-09-21T08:03:40;12.18;;;6.88;;
70981;SDS011;58640;51.320;9.456;2022-09-21T08:06:06;13.85;;;7.45;;
70981;SDS011;58640;51.320;9.456;2022-09-21T08:08:33;14.82;;;8.18;;
70981;SDS011;58640;51.320;9.456;2022-09-21T08:11:02;12.05;;;7.70;;
70981;SDS011;58640;51.320;9.456;2022-09-21T08:13:29;15.02;;;7.85;;
70981;SDS011;58640;51.320;9.456;2022-09-21T08:16:01;10.98;;;7.65;;
70981;SDS011;58640;51.320;9.456;2022-09-21T08:18:27;14.23;;;9.43;;
70981;SDS011;58640;51.320;9.456;2022-09-21T08:20:59;20.80;;;8.07;;
70981;SDS011;58640;51.320;9.456;2022-09-21T08:23:25;11.30;;;7.63;;
70981;SDS011;58640;51.320;9.456;2022-09-21T08:25:56;12.82;;;7.93;;
70981;SDS011;58640;51.320;9.456;2022-09-21T08:28:26;14.25;;;8.52;;
70981;SDS011;58640;51.320;9.456;2022-09-21T08:31:01;14.05;;;8.48;;
70981;SDS011;58640;51.320;9.456;2022-09-21T08:33:28;11.95;;;8.43;;
70981;SDS011;58640;51.320;9.456;2022-09-21T08:35:54;12.48;;;8.00;;
70981;SDS011;58640;51.320;9.456;2022-09-21T08:38:20;14.23;;;8.63;;
70981;SDS011;58640;51.320;9.456;2022-09-21T08:40:46;14.70;;;9.18;;
70981;SDS011;58640;51.320;9.456;2022-09-21T08:43:35;14.43;;;9.00;;
70981;SDS011;58640;51.320;9.456;2022-09-21T08:46:03;15.55;;;9.48;;
70981;SDS011;58640;51.320;9.456;2022-09-21T08:48:32;12.55;;;8.88;;
70981;SDS011;58640;51.320;9.456;2022-09-21T08:51:04;16.45;;;9.25;;
70981;SDS011;58640;51.320;9.456;2022-09-21T08:53:34;15.70;;;9.65;;
70981;SDS011;58640;51.320;9.456;2022-09-21T08:56:03;15.77;;;10.07;;
70981;SDS011;58640;51.320;9.456;2022-09-21T08:58:29;15.30;;;9.38;;
70981;SDS011;58640;51.320;9.456;2022-09-21T09:01:20;16.33;;;10.30;;
70981;SDS011;58640;51.320;9.456;2022-09-21T09:12:29;16.52;;;10.43;;
70981;SDS011;58640;51.320;9.456;2022-09-21T09:15:33;16.48;;;10.63;;
70981;SDS011;58640;51.320;9.456;2022-09-21T09:20:59;16.10;;;9.70;;
70981;SDS011;58640;51.320;9.456;2022-09-21T09:23:31;13.20;;;9.10;;
70981;SDS011;58640;51.320;9.456;2022-09-21T09:26:03;14.38;;;9.18;;
70981;SDS011;58640;51.320;9.456;2022-09-21T09:28:41;12.77;;;9.55;;
70981;SDS011;58640;51.320;9.456;2022-09-21T09:31:18;14.73;;;11.27;;
70981;SDS011;58640;51.320;9.456;2022-09-21T09:36:28;16.52;;;10.57;;
70981;SDS011;58640;51.320;9.456;2022-09-21T09:39:00;16.35;;;11.05;;
70981;SDS011;58640;51.320;9.456;2022-09-21T09:52:18;17.05;;;10.07;;
70981;SDS011;58640;51.320;9.456;2022-09-21T09:54:43;15.02;;;11.02;;
70981;SDS011;58640;51.320;9.456;2022-09-21T09:57:09;13.20;;;9.82;;
70981;SDS011;58640;51.320;9.456;2022-09-21T10:02:23;18.65;;;10.30;;
70981;SDS011;58640;51.320;9.456;2022-09-21T10:04:57;13.32;;;9.35;;
70981;SDS011;58640;51.320;9.456;2022-09-21T10:12:54;15.82;;;9.75;;
70981;SDS011;58640;51.320;9.456;2022-09-21T10:15:26;16.55;;;9.73;;
70981;SDS011;58640;51.320;9.456;2022-09-21T10:18:03;11.85;;;9.35;;
70981;SDS011;58640;51.320;9.456;2022-09-21T10:20:28;13.55;;;10.43;;
70981;SDS011;58640;51.320;9.456;2022-09-21T10:22:57;14.57;;;9.63;;
70981;SDS011;58640;51.320;9.456;2022-09-21T10:25:24;12.00;;;9.18;;
70981;SDS011;58640;51.320;9.456;2022-09-21T10:27:50;14.80;;;8.65;;
70981;SDS011;58640;51.320;9.456;2022-09-21T10:32:53;14.40;;;9.82;;
70981;SDS011;58640;51.320;9.456;2022-09-21T10:35:20;12.20;;;9.20;;
70981;SDS011;58640;51.320;9.456;2022-09-21T10:37:46;13.23;;;7.88;;
70981;SDS011;58640;51.320;9.456;2022-09-21T10:42:49;12.35;;;9.38;;
70981;SDS011;58640;51.320;9.456;2022-09-21T10:45:20;14.95;;;9.50;;
70981;SDS011;58640;51.320;9.456;2022-09-21T10:52:46;14.10;;;9.30;;
70981;SDS011;58640;51.320;9.456;2022-09-21T10:55:14;13.43;;;8.52;;
70981;SDS011;58640;51.320;9.456;2022-09-21T10:57:41;13.68;;;8.85;;
70981;SDS011;58640;51.320;9.456;2022-09-21T11:00:25;19.35;;;8.77;;
70981;SDS011;58640;51.320;9.456;2022-09-21T11:02:59;14.10;;;9.52;;
70981;SDS011;58640;51.320;9.456;2022-09-21T11:05:31;11.18;;;5.63;;
70981;SDS011;58640;51.320;9.456;2022-09-21T11:08:01;10.95;;;5.38;;
70981;SDS011;58640;51.320;9.456;2022-09-21T11:10:51;8.15;;;3.45;;
70981;SDS011;58640;51.320;9.456;2022-09-21T11:13:32;9.85;;;5.28;;
70981;SDS011;58640;51.320;9.456;2022-09-21T11:18:44;11.02;;;4.60;;
70981;SDS011;58640;51.320;9.456;2022-09-21T11:21:28;14.63;;;4.30;;
70981;SDS011;58640;51.320;9.456;2022-09-21T11:26:47;8.27;;;2.33;;
70981;SDS011;58640;51.320;9.456;2022-09-21T11:45:58;6.88;;;2.03;;
70981;SDS011;58640;51.320;9.456;2022-09-21T11:51:27;9.40;;;1.70;;
70981;SDS011;58640;51.320;9.456;2022-09-21T12:02:43;5.38;;;2.17;;
70981;SDS011;58640;51.320;9.456;2022-09-21T12:08:20;2.45;;;1.00;;
70981;SDS011;58640;51.320;9.456;2022-09-21T12:11:14;7.38;;;1.38;;
70981;SDS011;58640;51.320;9.456;2022-09-21T12:16:34;5.30;;;0.90;;
70981;SDS011;58640;51.320;9.456;2022-09-21T12:19:08;3.83;;;0.90;;
70981;SDS011;58640;51.320;9.456;2022-09-21T12:21:59;4.25;;;1.17;;
70981;SDS011;58640;51.320;9.456;2022-09-21T12:24:32;4.03;;;0.70;;
70981;SDS011;58640;51.320;9.456;2022-09-21T12:27:08;3.20;;;0.60;;
70981;SDS011;58640;51.320;9.456;2022-09-21T12:29:50;3.22;;;0.68;;
70981;SDS011;58640;51.320;9.456;2022-09-21T12:32:21;2.05;;;0.73;;
70981;SDS011;58640;51.320;9.456;2022-09-21T12:34:58;2.95;;;0.85;;
70981;SDS011;58640;51.320;9.456;2022-09-21T12:40:05;7.90;;;1.10;;
70981;SDS011;58640;51.320;9.456;2022-09-21T12:42:39;1.50;;;0.60;;
70981;SDS011;58640;51.320;9.456;2022-09-21T12:45:18;4.88;;;1.02;;
70981;SDS011;58640;51.320;9.456;2022-09-21T12:50:25;6.80;;;0.90;;
70981;SDS011;58640;51.320;9.456;2022-09-21T12:53:04;2.20;;;0.82;;
70981;SDS011;58640;51.320;9.456;2022-09-21T13:00:44;2.28;;;1.00;;
70981;SDS011;58640;51.320;9.456;2022-09-21T13:03:20;4.78;;;0.85;;
70981;SDS011;58640;51.320;9.456;2022-09-21T13:08:31;1.98;;;0.93;;
70981;SDS011;58640;51.320;9.456;2022-09-21T13:11:05;2.78;;;1.30;;
70981;SDS011;58640;51.320;9.456;2022-09-21T13:13:48;5.57;;;0.90;;
70981;SDS011;58640;51.320;9.456;2022-09-21T13:18:53;6.90;;;0.82;;
70981;SDS011;58640;51.320;9.456;2022-09-21T13:21:23;5.70;;;0.73;;
70981;SDS011;58640;51.320;9.456;2022-09-21T13:26:27;3.90;;;0.70;;
70981;SDS011;58640;51.320;9.456;2022-09-21T13:29:01;1.38;;;0.77;;
70981;SDS011;58640;51.320;9.456;2022-09-21T13:31:52;3.88;;;0.98;;
70981;SDS011;58640;51.320;9.456;2022-09-21T13:34:28;7.05;;;0.88;;
70981;SDS011;58640;51.320;9.456;2022-09-21T13:39:44;4.43;;;0.90;;
70981;SDS011;58640;51.320;9.456;2022-09-21T13:44:53;2.80;;;0.63;;
70981;SDS011;58640;51.320;9.456;2022-09-21T13:47:35;4.40;;;0.82;;
70981;SDS011;58640;51.320;9.456;2022-09-21T13:50:10;3.90;;;0.93;;
70981;SDS011;58640;51.320;9.456;2022-09-21T13:52:47;5.18;;;0.80;;
70981;SDS011;58640;51.320;9.456;2022-09-21T13:55:22;3.17;;;0.88;;
70981;SDS011;58640;51.320;9.456;2022-09-21T13:57:56;2.83;;;0.70;;
70981;SDS011;58640;51.320;9.456;2022-09-21T14:03:35;9.60;;;4.47;;
70981;SDS011;58640;51.320;9.456;2022-09-21T14:06:07;4.00;;;1.80;;
70981;SDS011;58640;51.320;9.456;2022-09-21T14:08:38;1.85;;;0.75;;
70981;SDS011;58640;51.320;9.456;2022-09-21T14:11:14;4.43;;;1.63;;
70981;SDS011;58640;51.320;9.456;2022-09-21T14:13:46;4.82;;;2.42;;
70981;SDS011;58640;51.320;9.456;2022-09-21T14:21:50;2.58;;;0.88;;
70981;SDS011;58640;51.320;9.456;2022-09-21T14:30:21;2.75;;;1.10;;
70981;SDS011;58640;51.320;9.456;2022-09-21T14:32:50;1.30;;;1.00;;
70981;SDS011;58640;51.320;9.456;2022-09-21T14:35:32;2.92;;;1.10;;
70981;SDS011;58640;51.320;9.456;2022-09-21T14:38:04;5.10;;;0.95;;
70981;SDS011;58640;51.320;9.456;2022-09-21T14:40:38;3.47;;;1.30;;
70981;SDS011;58640;51.320;9.456;2022-09-21T14:43:13;2.83;;;0.90;;
70981;SDS011;58640;51.320;9.456;2022-09-21T15:01:59;1.63;;;0.85;;
70981;SDS011;58640;51.320;9.456;2022-09-21T15:10:43;3.95;;;0.80;;
70981;SDS011;58640;51.320;9.456;2022-09-21T15:13:36;2.03;;;0.70;;
70981;SDS011;58640;51.320;9.456;2022-09-21T15:18:38;2.78;;;1.05;;
70981;SDS011;58640;51.320;9.456;2022-09-21T15:21:17;4.30;;;1.30;;
70981;SDS011;58640;51.320;9.456;2022-09-21T15:23:51;3.25;;;1.17;;
70981;SDS011;58640;51.320;9.456;2022-09-21T15:26:21;3.25;;;0.95;;
70981;SDS011;58640;51.320;9.456;2022-09-21T15:28:55;2.53;;;1.20;;
70981;SDS011;58640;51.320;9.456;2022-09-21T15:31:23;5.07;;;1.30;;
70981;SDS011;58640;51.320;9.456;2022-09-21T15:33:50;2.50;;;0.90;;
70981;SDS011;58640;51.320;9.456;2022-09-21T15:36:24;0.88;;;0.70;;
70981;SDS011;58640;51.320;9.456;2022-09-21T15:38:52;2.17;;;0.50;;
70981;SDS011;58640;51.320;9.456;2022-09-21T15:41:43;4.60;;;0.93;;
70981;SDS011;58640;51.320;9.456;2022-09-21T15:44:13;4.90;;;0.90;;
70981;SDS011;58640;51.320;9.456;2022-09-21T15:46:41;3.53;;;0.70;;
70981;SDS011;58640;51.320;9.456;2022-09-21T15:49:14;3.05;;;0.63;;
70981;SDS011;58640;51.320;9.456;2022-09-21T15:51:46;3.15;;;0.55;;
70981;SDS011;58640;51.320;9.456;2022-09-21T15:54:36;2.63;;;0.77;;
70981;SDS011;58640;51.320;9.456;2022-09-21T15:57:22;2.00;;;0.55;;
70981;SDS011;58640;51.320;9.456;2022-09-21T15:59:49;3.35;;;0.65;;
70981;SDS011;58640;51.320;9.456;2022-09-21T16:02:18;3.10;;;0.73;;
70981;SDS011;58640;51.320;9.456;2022-09-21T16:04:47;2.08;;;0.82;;
70981;SDS011;58640;51.320;9.456;2022-09-21T16:07:32;3.60;;;1.00;;
70981;SDS011;58640;51.320;9.456;2022-09-21T16:09:59;2.50;;;1.00;;
70981;SDS011;58640;51.320;9.456;2022-09-21T16:12:42;2.78;;;1.10;;
70981;SDS011;58640;51.320;9.456;2022-09-21T16:15:15;4.22;;;1.25;;
70981;SDS011;58640;51.320;9.456;2022-09-21T16:18:03;2.50;;;1.02;;
70981;SDS011;58640;51.320;9.456;2022-09-21T16:23:05;2.03;;;1.15;;
70981;SDS011;58640;51.320;9.456;2022-09-21T16:25:37;3.20;;;1.40;;
70981;SDS011;58640;51.320;9.456;2022-09-21T16:28:04;5.55;;;1.60;;
70981;SDS011;58640;51.320;9.456;2022-09-21T16:30:50;2.58;;;1.40;;
70981;SDS011;58640;51.320;9.456;2022-09-21T16:38:49;3.92;;;1.33;;
70981;SDS011;58640;51.320;9.456;2022-09-21T16:41:17;3.50;;;1.85;;
70981;SDS011;58640;51.320;9.456;2022-09-21T16:43:43;4.65;;;2.00;;
70981;SDS011;58640;51.320;9.456;2022-09-21T16:46:09;4.03;;;2.72;;
70981;SDS011;58640;51.320;9.456;2022-09-21T16:48:35;6.10;;;2.00;;
70981;SDS011;58640;51.320;9.456;2022-09-21T16:51:00;4.20;;;2.35;;
70981;SDS011;58640;51.320;9.456;2022-09-21T16:53:26;5.38;;;1.67;;
70981;SDS011;58640;51.320;9.456;2022-09-21T16:55:54;6.85;;;2.40;;
70981;SDS011;58640;51.320;9.456;2022-09-21T16:58:20;2.70;;;1.40;;
70981;SDS011;58640;51.320;9.456;2022-09-21T17:00:48;3.15;;;1.52;;
70981;SDS011;58640;51.320;9.456;2022-09-21T17:03:16;4.25;;;1.90;;
70981;SDS011;58640;51.320;9.456;2022-09-21T17:05:43;2.70;;;1.40;;
70981;SDS011;58640;51.320;9.456;2022-09-21T17:08:08;2.30;;;1.35;;
70981;SDS011;58640;51.320;9.456;2022-09-21T17:10:38;5.75;;;1.67;;
70981;SDS011;58640;51.320;9.456;2022-09-21T17:13:08;3.03;;;1.52;;
70981;SDS011;58640;51.320;9.456;2022-09-21T17:15:34;4.63;;;1.88;;
70981;SDS011;58640;51.320;9.456;2022-09-21T17:18:00;8.10;;;1.55;;
70981;SDS011;58640;51.320;9.456;2022-09-21T17:20:33;4.15;;;1.08;;
70981;SDS011;58640;51.320;9.456;2022-09-21T17:23:03;6.55;;;1.30;;
70981;SDS011;58640;51.320;9.456;2022-09-21T17:25:30;2.22;;;1.20;;
70981;SDS011;58640;51.320;9.456;2022-09-21T17:27:57;3.80;;;1.63;;
70981;SDS011;58640;51.320;9.456;2022-09-21T17:30:26;3.42;;;1.42;;
70981;SDS011;58640;51.320;9.456;2022-09-21T17:32:52;4.60;;;1.60;;
70981;SDS011;58640;51.320;9.456;2022-09-21T17:35:21;4.90;;;2.20;;
70981;SDS011;58640;51.320;9.456;2022-09-21T17:37:56;5.03;;;1.90;;
70981;SDS011;58640;51.320;9.456;2022-09-21T17:40:22;5.32;;;2.38;;
70981;SDS011;58640;51.320;9.456;2022-09-21T17:42:49;3.97;;;2.17;;
70981;SDS011;58640;51.320;9.456;2022-09-21T17:47:46;6.90;;;2.95;;
70981;SDS011;58640;51.320;9.456;2022-09-21T17:50:24;10.95;;;3.67;;
70981;SDS011;58640;51.320;9.456;2022-09-21T17:52:51;7.22;;;3.67;;
70981;SDS011;58640;51.320;9.456;2022-09-21T17:55:37;5.22;;;3.22;;
70981;SDS011;58640;51.320;9.456;2022-09-21T18:01:13;6.70;;;3.33;;
70981;SDS011;58640;51.320;9.456;2022-09-21T18:03:45;12.40;;;3.20;;
70981;SDS011;58640;51.320;9.456;2022-09-21T18:06:11;5.07;;;2.60;;
70981;SDS011;58640;51.320;9.456;2022-09-21T18:08:37;8.52;;;3.35;;
70981;SDS011;58640;51.320;9.456;2022-09-21T18:11:17;8.13;;;2.80;;
70981;SDS011;58640;51.320;9.456;2022-09-21T18:22:36;6.57;;;2.70;;
70981;SDS011;58640;51.320;9.456;2022-09-21T18:25:08;9.57;;;3.05;;
70981;SDS011;58640;51.320;9.456;2022-09-21T18:27:39;7.88;;;3.33;;
70981;SDS011;58640;51.320;9.456;2022-09-21T18:30:05;6.20;;;3.20;;
70981;SDS011;58640;51.320;9.456;2022-09-21T18:32:42;7.00;;;4.53;;